Meteo Giornale » Osservazioni meteo Italia » Falconara

ore: 02:50 - Osservazioni Meteo Falconara
Lat. 43° 37' N Lon. 13° 22' E Alt. 12 metri s.l.m.

sereno Europe/Rome

14 °C

Sereno

Temp. 24 Ore

13 °C

26 °C

Nord

5.5 Km/h

Dew point 8 °C

Umidità 67 %

Visibilità  10 Km

Il sole sorge alle ore 05:48

Il sole tramonta alle ore 20:17

Data e Ora Cielo e Fenomeni T °C DP °C Um. % Pres. hPa Vis. km Vento km/h
Oggi h: 02:50 sereno Sereno 14 8 67 1011 10 N 5.5
Oggi h: 02:20 molto_nuvoloso Molto Nuvoloso 13 7 66 1011 10 N 3.7
Oggi h: 01:50 molto_nuvoloso Molto Nuvoloso 14 7 62 1011 10 N 3.7
Oggi h: 01:20 sereno Sereno 14 7 62 1011 10 N 5.5
Oggi h: 00:50 sereno Sereno 15 7 58 1011 10 N 3.7
Oggi h: 00:20 sereno Sereno 17 7 51 1011 10 N 5.5
Ieri h: 23:50 sereno Sereno 15 6 54 1011 10 O/SO 11.1
Ieri h: 23:20 sereno Sereno 18 6 45 1011 10 SO 13
Ieri h: 22:50 sereno Sereno 18 7 48 1012 10 S/SO 9.3
Ieri h: 22:20 sereno Sereno 15 9 67 1012 10 N 3.7
Ieri h: 21:50 sereno Sereno 18 8 51 1011 10 N 5.5
Ieri h: 21:20 sereno Sereno 18 9 55 1011 10 S 7.4
Ieri h: 20:50 sereno Sereno 18 9 55 1011 10 S/SE 7.4
Ieri h: 20:20 sereno Sereno 19 9 52 1010 10 S/SE 11.1
Ieri h: 19:20 poco_nuvoloso Poco Nuvoloso 20 9 49 1010 10 SE 16.7
Ieri h: 18:50 nuvoloso Nuvoloso 20 9 49 1010 10 SE 14.8
Ieri h: 18:20 poco_nuvoloso Poco Nuvoloso 21 10 49 1010 10 SE 14.8
Ieri h: 17:50 poco_nuvoloso Poco Nuvoloso 21 10 49 1010 10 S/SE 14.8
Ieri h: 17:20 poco_nuvoloso Poco Nuvoloso 21 11 52 1011 10 SE 18.5
Ieri h: 16:50 molto_nuvoloso Molto Nuvoloso 22 11 49 1011 10 SE 16.7
Ieri h: 16:20 nuvoloso Nuvoloso 26 7 29 1011 10 O 18.5
Ieri h: 15:50 sereno Sereno 26 6 27 1012 10 SO 25.9
Ieri h: 15:20 sereno Sereno 25 5 27 1012 10 O/SO 29.6
Ieri h: 14:50 sereno Sereno 25 5 27 1012 10 SO 25.9
Ieri h: 14:20 poco_nuvoloso Poco Nuvoloso 25 6 29 1013 10 O/SO 29.6
Ieri h: 13:20 poco_nuvoloso Poco Nuvoloso 24 6 31 1013 10 O/SO 24
Ieri h: 12:50 sereno Sereno 23 6 33 1013 10 SO 29.6
Ieri h: 12:20 sereno Sereno 22 7 37 1013 10 O/SO 27.8
Ieri h: 11:50 sereno Sereno 21 7 40 1014 10 O/SO 18.5
Ieri h: 11:20 sereno Sereno 20 6 39 1014 10 O 25.9
Ieri h: 10:50 sereno Sereno 21 5 35 1013 10 O/SO 25.9
Ieri h: 10:20 sereno Sereno 20 6 39 1013 10 O/SO 27.8
Ieri h: 09:50 nuvoloso Nuvoloso 19 7 45 1013 10 SO 25.9
Ieri h: 09:20 molto_nuvoloso Molto Nuvoloso 19 7 45 1013 10 SO 24
Ieri h: 08:50 nuvoloso Nuvoloso 20 7 42 1013 10 SO 22.2
Ieri h: 08:20 sereno Sereno 19 7 45 1012 10 SO 25.9
Ieri h: 07:50 sereno Sereno 18 8 51 1012 10 SO 20.3
Ieri h: 07:20 sereno Sereno 17 8 55 1012 10 SO 24
Ieri h: 06:50 sereno Sereno 15 8 62 1011 10 SO 9.3
Ieri h: 06:20 poco_nuvoloso Poco Nuvoloso 16 8 58 1011 10 S 7.4
Ieri h: 05:50 molto_nuvoloso Molto Nuvoloso 16 8 58 1011 10 S 7.4
Ieri h: 05:20 molto_nuvoloso Molto Nuvoloso 16 8 58 1010 10 S 9.3
Ieri h: 04:50 sereno Sereno 16 9 63 1010 10 S 13
Ieri h: 04:20 sereno Sereno 16 8 58 1010 10 S/SO 14.8
Ieri h: 03:50 sereno Sereno 16 8 58 1011 10 S/SO 20.3